Buoy 32622

sailwx.info

Track history (hours):
 
Tides and Currents Weather Stations Pressure Air Temp Water Temp Dewpoint Dewpoint Depression Visibility Wind Speed Wind Dir Waves Ship Positions

Aadnyj

Last reported at 2017-Aug-22 04:00 UTC. Time now 2017-Aug-22 05:20 UTC.
Position S 15°07' W 164°30'.

Length 56 m.

Type: Towing. MMSI: 413600286.

Water temperature 27.6 ° C

Date/timePositionNaut miles runAvg speedWind from/ knotsBaromVisibWave heightAir tempDewpointWater temp
2017-Aug-22 04:00S 15°07' W 164°30'0 0.0 27.6
2017-Aug-22 03:00S 15°07' W 164°30'2 1.7 27.7
2017-Aug-22 02:00S 15°08' W 164°29'0 0.0 27.7
2017-Aug-22 01:00S 15°08' W 164°29'5 1.0 27.7
2017-Aug-21 20:00S 15°13' W 164°26'0 0.0 27.4
2017-Aug-21 19:00S 15°13' W 164°26'1 1.3 27.4
2017-Aug-21 18:00S 15°13' W 164°25'1 0.8 27.5
2017-Aug-21 17:00S 15°13' W 164°24'1 0.6 27.5
2017-Aug-21 16:00S 15°13' W 164°23'2 1.7 27.5
2017-Aug-21 15:00S 15°13' W 164°22'1 0.3 27.5
2017-Aug-21 13:00S 15°13' W 164°21'0 0.0 27.6
2017-Aug-21 12:00S 15°13' W 164°21'4 1.4 27.6
2017-Aug-21 09:00S 15°11' W 164°17'0 0.0 27.7
2017-Aug-21 08:00S 15°11' W 164°17'1 0.6 27.7
2017-Aug-21 07:00S 15°11' W 164°16'1 0.8 27.7
2017-Aug-21 06:00S 15°11' W 164°16'1 1.2 27.7
2017-Aug-21 05:00S 15°10' W 164°16'0 0.0 27.8
2017-Aug-21 04:00S 15°10' W 164°16'1 1.3 27.8
2017-Aug-21 03:00S 15°09' W 164°14'0 0.0 27.8
2017-Aug-21 02:00S 15°09' W 164°14'0 0.0 27.8
2017-Aug-21 01:00S 15°09' W 164°14'3 0.7 27.8
2017-Aug-20 20:00S 15°07' W 164°11'2 2.4 27.8
2017-Aug-20 19:00S 15°07' W 164°09'2 1.7 27.8
2017-Aug-20 18:00S 15°07' W 164°11'1 1.3 27.8
2017-Aug-20 17:00S 15°05' W 164°10'3 2.6 27.8
2017-Aug-20 16:00S 15°04' W 164°08'0 0.0 27.8
2017-Aug-20 15:00S 15°04' W 164°08'0 0.0 27.8
2017-Aug-20 13:00S 15°04' W 164°08'5 0.9 27.9
2017-Aug-20 08:00S 15°04' W 164°03'1 0.6 27.8
2017-Aug-20 07:00S 15°03' W 164°03'1 1.2 27.8
2017-Aug-20 06:00S 15°03' W 164°02'1 1.3 27.8
2017-Aug-20 05:00S 15°04' W 164°01'0 0.0 27.8
2017-Aug-20 04:00S 15°04' W 164°01'0 0.0 27.7
2017-Aug-20 03:00S 15°04' W 164°01'5 4.7 27.7
2017-Aug-20 02:00S 15°03' W 163°56'0 0.0 27.7
2017-Aug-19 21:00S 15°03' W 163°56'3 3.0 27.5
2017-Aug-19 20:00S 15°04' W 163°53'0 0.0 27.5
2017-Aug-19 19:00S 15°04' W 163°53'3 2.7 27.5
2017-Aug-19 18:00S 15°06' W 163°54'1 1.3 27.4
2017-Aug-19 17:00S 15°05' W 163°53'1 1.3 27.4
2017-Aug-19 16:00S 15°06' W 163°52'1 0.8 27.4
2017-Aug-19 15:00S 15°07' W 163°52'0 0.0 27.4
2017-Aug-19 13:00S 15°07' W 163°52'4 0.9 27.4
2017-Aug-19 09:00S 15°07' W 163°49'0 0.0 27.4
2017-Aug-19 08:00S 15°07' W 163°49'0 0.0 27.4
2017-Aug-19 07:00S 15°07' W 163°49'1 0.7 27.5
2017-Aug-19 05:00S 15°08' W 163°47'1 0.3 27.5
2017-Aug-19 03:00S 15°08' W 163°48'0 0.0 27.5
2017-Aug-19 02:00S 15°08' W 163°48'4 1.8 27.5
2017-Aug-19 00:00S 15°07' W 163°44'0 0.0 27.4
2017-Aug-18 20:00S 15°07' W 163°44'1 1.2 27.3
2017-Aug-18 19:00S 15°07' W 163°43'0 0.0 27.3
2017-Aug-18 18:00S 15°07' W 163°43'2 1.7 27.3
2017-Aug-18 17:00S 15°07' W 163°41'0 0.0 27.3
2017-Aug-18 16:00S 15°07' W 163°41'3 1.6 27.3
2017-Aug-18 14:00S 15°06' W 163°38'0 0.0 27.4
2017-Aug-18 13:00S 15°06' W 163°38'2 0.4 27.4
2017-Aug-18 08:00S 15°07' W 163°37'1 0.6 27.5
2017-Aug-18 07:00S 15°06' W 163°37'3 3.0 27.6
2017-Aug-18 06:00S 15°07' W 163°34'0 0.0 27.6
2017-Aug-18 05:00S 15°07' W 163°34'1 1.3 27.7
2017-Aug-18 04:00S 15°06' W 163°32'0 0.0 27.7
2017-Aug-18 03:00S 15°06' W 163°32'1 0.6 27.7
2017-Aug-18 02:00S 15°05' W 163°32'2 1.2 27.7
2017-Aug-18 00:00S 15°05' W 163°30'4 1.4 27.7
2017-Aug-17 21:00S 15°05' W 163°26'2 1.7 27.7
2017-Aug-17 20:00S 15°04' W 163°25'0 0.0 27.7
2017-Aug-17 19:00S 15°04' W 163°25'3 2.9 27.7
2017-Aug-17 18:00S 15°02' W 163°22'0 0.0 27.8
2017-Aug-17 17:00S 15°02' W 163°22'2 1.8 27.8
2017-Aug-17 16:00S 15°01' W 163°22'0 0.0 27.8
2017-Aug-17 15:00S 15°01' W 163°22'2 2.4 27.9
2017-Aug-17 14:00S 15°00' W 163°20'3 1.5 27.9
2017-Aug-17 12:00S 14°58' W 163°18'0 0.0 27.9
2017-Aug-17 09:00S 14°58' W 163°18'1 0.8 27.9
2017-Aug-17 08:00S 14°57' W 163°17'2 1.8 27.9
2017-Aug-17 07:00S 14°56' W 163°16'0 0.0 27.9
2017-Aug-17 06:00S 14°56' W 163°16'1 0.6 27.9
2017-Aug-17 05:00S 14°56' W 163°16'1 1.3 27.8
2017-Aug-17 04:00S 14°55' W 163°14'1 0.6 27.8
2017-Aug-17 03:00S 14°55' W 163°15'1 1.3 27.7
2017-Aug-17 02:00S 14°55' W 163°14'0 0.0 27.7
2017-Aug-17 01:00S 14°55' W 163°14'0 0.0 27.7
2017-Aug-17 00:00S 14°55' W 163°14'3 0.9 27.8
2017-Aug-16 21:00S 14°53' W 163°11'1 0.6 27.8
2017-Aug-16 20:00S 14°53' W 163°11'1 0.6 27.8
2017-Aug-16 19:00S 14°53' W 163°11'0 0.0 27.8
2017-Aug-16 18:00S 14°53' W 163°11'2 1.7 27.8
2017-Aug-16 17:00S 14°52' W 163°10'3 3.4 27.8
2017-Aug-16 16:00S 14°50' W 163°07'0 0.0 27.9
2017-Aug-16 15:00S 14°50' W 163°07'0 0.0 27.9
2017-Aug-16 14:00S 14°50' W 163°07'1 1.3 27.9
2017-Aug-16 13:00S 14°49' W 163°06'0 0.0 27.9
2017-Aug-16 12:00S 14°49' W 163°06'2 0.6 27.9
2017-Aug-16 09:00S 14°49' W 163°04'4 3.7 27.9
2017-Aug-16 08:00S 14°47' W 163°01'1 0.6 27.9
2017-Aug-16 07:00S 14°47' W 163°01'0 0.0 27.9
2017-Aug-16 06:00S 14°47' W 163°01'1 1.3 27.8
2017-Aug-16 05:00S 14°48' W 163°00'2 2.3 27.8
2017-Aug-16 04:00S 14°48' W 162°58'1 0.6 27.9
2017-Aug-16 03:00S 14°49' W 162°58'0 0.0 27.9
2017-Aug-16 02:00S 14°49' W 162°58'0 0.0 27.9
2017-Aug-16 01:00S 14°49' W 162°58'3 0.7 27.9
2017-Aug-15 21:00S 14°49' W 162°55'2 1.2 27.9
2017-Aug-15 19:00S 14°49' W 162°52'0 0.0 27.8
2017-Aug-15 18:00S 14°49' W 162°52'0 0.0 27.9
2017-Aug-15 17:00S 14°49' W 162°52'0 0.0 27.9
2017-Aug-15 16:00S 14°49' W 162°52'1 0.7 27.9
2017-Aug-15 14:00S 14°49' W 162°51'1 0.8 27.9
2017-Aug-15 13:00S 14°49' W 162°50'0 0.0 27.9
2017-Aug-15 12:00S 14°49' W 162°50'4 1.1 27.9
2017-Aug-15 08:00S 14°47' W 162°46'0 0.0 27.9
2017-Aug-15 07:00S 14°47' W 162°46'1 0.6 27.9
2017-Aug-15 06:00S 14°47' W 162°46'0 0.0 27.9
2017-Aug-15 05:00S 14°47' W 162°46'1 1.3 27.9
2017-Aug-15 04:00S 14°47' W 162°44'1 0.8 27.9
2017-Aug-15 03:00S 14°47' W 162°44'1 0.8 27.9
2017-Aug-15 02:00S 14°47' W 162°44'0 0.0 27.9
2017-Aug-15 01:00S 14°47' W 162°44'3 0.9 27.9
2017-Aug-14 21:00S 14°45' W 162°41'3 3.0 27.8
2017-Aug-14 20:00S 14°46' W 162°38'1 0.8 27.8
2017-Aug-14 19:00S 14°45' W 162°38'2 2.1 27.8
2017-Aug-14 18:00S 14°47' W 162°37'1 0.8 27.7
2017-Aug-14 17:00S 14°46' W 162°36'0 0.0 27.7
2017-Aug-14 16:00S 14°46' W 162°36'1 1.3 27.7
2017-Aug-14 15:00S 14°47' W 162°35'0 0.0 27.7
2017-Aug-14 14:00S 14°47' W 162°35'1 0.6 27.6
2017-Aug-14 13:00S 14°47' W 162°34'0 0.0 27.6
2017-Aug-14 12:00S 14°47' W 162°34'4 1.4 27.5
2017-Aug-14 09:00S 14°48' W 162°30'0 0.0 27.5
2017-Aug-14 08:00S 14°48' W 162°30'1 1.2 27.6
2017-Aug-14 07:00S 14°48' W 162°29'3 3.1 27.6
2017-Aug-14 06:00S 14°51' W 162°28'1 0.3 27.7
2017-Aug-14 04:00S 14°50' W 162°28'2 1.8 27.5
2017-Aug-14 03:00S 14°52' W 162°28'0 0.0 27.5
2017-Aug-14 02:00S 14°52' W 162°28'0 0.0 27.4
2017-Aug-14 01:00S 14°52' W 162°28'6 1.2 27.3
2017-Aug-13 20:00S 14°54' W 162°22'1 0.6 27.3
2017-Aug-13 19:00S 14°55' W 162°22'2 2.4 27.3
2017-Aug-13 18:00S 14°55' W 162°20'1 0.3 27.3
2017-Aug-13 16:00S 14°55' W 162°20'1 1.2 27.3
2017-Aug-13 15:00S 14°55' W 162°19'1 0.3 27.3
2017-Aug-13 13:00S 14°55' W 162°19'0 0.0 27.5
2017-Aug-13 12:00S 14°55' W 162°19'1 0.4 27.5
2017-Aug-13 09:00S 14°54' W 162°18'1 0.8 27.6
2017-Aug-13 08:00S 14°53' W 162°17'1 0.6 27.7
2017-Aug-13 07:00S 14°53' W 162°17'0 0.0 27.7
2017-Aug-13 06:00S 14°53' W 162°17'1 1.3 27.8
2017-Aug-13 05:00S 14°53' W 162°16'1 0.6 27.8
2017-Aug-13 04:00S 14°53' W 162°16'0 0.0 27.9
2017-Aug-13 03:00S 14°53' W 162°16'1 1.3 27.9
2017-Aug-13 02:00S 14°53' W 162°17'0 0.0 27.9
2017-Aug-13 01:00S 14°53' W 162°17'2 0.5 27.9
2017-Aug-12 21:00S 14°51' W 162°16'0 0.0 27.8
2017-Aug-12 20:00S 14°51' W 162°16'0 0.0 27.8
2017-Aug-12 19:00S 14°51' W 162°16'2 1.7 27.8
2017-Aug-12 18:00S 14°51' W 162°14'2 0.9 27.8
2017-Aug-12 16:00S 14°51' W 162°16'0 0.0 27.8
2017-Aug-12 15:00S 14°51' W 162°16'0 0.0 27.8
2017-Aug-12 13:00S 14°51' W 162°16'1 0.3 27.8
2017-Aug-12 09:00S 14°52' W 162°17'1 0.8 27.9
2017-Aug-12 08:00S 14°51' W 162°17'1 0.6 27.8
2017-Aug-12 07:00S 14°50' W 162°17'0 0.0 27.9
2017-Aug-12 06:00S 14°50' W 162°17'2 1.8 27.9
2017-Aug-12 05:00S 14°50' W 162°19'   27.9
Track history (hours):
 
Tides and Currents Weather Stations Pressure Air Temp Water Temp Dewpoint Dewpoint Depression Visibility Wind Speed Wind Dir Waves Ship Positions

Aadnyj

Last reported at 2017-Aug-22 04:00 UTC. Time now 2017-Aug-22 05:20 UTC.
Position S 15°07' W 164°30'.

Length 56 m.

Type: Towing. MMSI: 413600286.

Water temperature 27.6 ° C

Date/timePositionNaut miles runAvg speedWind from/ knotsBaromVisibWave heightAir tempDewpointWater temp
2017-Aug-22 04:00S 15°07' W 164°30'0 0.0 27.6
2017-Aug-22 03:00S 15°07' W 164°30'2 1.7 27.7
2017-Aug-22 02:00S 15°08' W 164°29'0 0.0 27.7
2017-Aug-22 01:00S 15°08' W 164°29'5 1.0 27.7
2017-Aug-21 20:00S 15°13' W 164°26'0 0.0 27.4
2017-Aug-21 19:00S 15°13' W 164°26'1 1.3 27.4
2017-Aug-21 18:00S 15°13' W 164°25'1 0.8 27.5
2017-Aug-21 17:00S 15°13' W 164°24'1 0.6 27.5
2017-Aug-21 16:00S 15°13' W 164°23'2 1.7 27.5
2017-Aug-21 15:00S 15°13' W 164°22'1 0.3 27.5
2017-Aug-21 13:00S 15°13' W 164°21'0 0.0 27.6
2017-Aug-21 12:00S 15°13' W 164°21'4 1.4 27.6
2017-Aug-21 09:00S 15°11' W 164°17'0 0.0 27.7
2017-Aug-21 08:00S 15°11' W 164°17'1 0.6 27.7
2017-Aug-21 07:00S 15°11' W 164°16'1 0.8 27.7
2017-Aug-21 06:00S 15°11' W 164°16'1 1.2 27.7
2017-Aug-21 05:00S 15°10' W 164°16'0 0.0 27.8
2017-Aug-21 04:00S 15°10' W 164°16'1 1.3 27.8
2017-Aug-21 03:00S 15°09' W 164°14'0 0.0 27.8
2017-Aug-21 02:00S 15°09' W 164°14'0 0.0 27.8
2017-Aug-21 01:00S 15°09' W 164°14'3 0.7 27.8
2017-Aug-20 20:00S 15°07' W 164°11'2 2.4 27.8
2017-Aug-20 19:00S 15°07' W 164°09'2 1.7 27.8
2017-Aug-20 18:00S 15°07' W 164°11'1 1.3 27.8
2017-Aug-20 17:00S 15°05' W 164°10'3 2.6 27.8
2017-Aug-20 16:00S 15°04' W 164°08'0 0.0 27.8
2017-Aug-20 15:00S 15°04' W 164°08'0 0.0 27.8
2017-Aug-20 13:00S 15°04' W 164°08'5 0.9 27.9
2017-Aug-20 08:00S 15°04' W 164°03'1 0.6 27.8
2017-Aug-20 07:00S 15°03' W 164°03'1 1.2 27.8
2017-Aug-20 06:00S 15°03' W 164°02'1 1.3 27.8
2017-Aug-20 05:00S 15°04' W 164°01'0 0.0 27.8
2017-Aug-20 04:00S 15°04' W 164°01'0 0.0 27.7
2017-Aug-20 03:00S 15°04' W 164°01'5 4.7 27.7
2017-Aug-20 02:00S 15°03' W 163°56'0 0.0 27.7
2017-Aug-19 21:00S 15°03' W 163°56'3 3.0 27.5
2017-Aug-19 20:00S 15°04' W 163°53'0 0.0 27.5
2017-Aug-19 19:00S 15°04' W 163°53'3 2.7 27.5
2017-Aug-19 18:00S 15°06' W 163°54'1 1.3 27.4
2017-Aug-19 17:00S 15°05' W 163°53'1 1.3 27.4
2017-Aug-19 16:00S 15°06' W 163°52'1 0.8 27.4
2017-Aug-19 15:00S 15°07' W 163°52'0 0.0 27.4
2017-Aug-19 13:00S 15°07' W 163°52'4 0.9 27.4
2017-Aug-19 09:00S 15°07' W 163°49'0 0.0 27.4
2017-Aug-19 08:00S 15°07' W 163°49'0 0.0 27.4
2017-Aug-19 07:00S 15°07' W 163°49'1 0.7 27.5
2017-Aug-19 05:00S 15°08' W 163°47'1 0.3 27.5
2017-Aug-19 03:00S 15°08' W 163°48'0 0.0 27.5
2017-Aug-19 02:00S 15°08' W 163°48'4 1.8 27.5
2017-Aug-19 00:00S 15°07' W 163°44'0 0.0 27.4
2017-Aug-18 20:00S 15°07' W 163°44'1 1.2 27.3
2017-Aug-18 19:00S 15°07' W 163°43'0 0.0 27.3
2017-Aug-18 18:00S 15°07' W 163°43'2 1.7 27.3
2017-Aug-18 17:00S 15°07' W 163°41'0 0.0 27.3
2017-Aug-18 16:00S 15°07' W 163°41'3 1.6 27.3
2017-Aug-18 14:00S 15°06' W 163°38'0 0.0 27.4
2017-Aug-18 13:00S 15°06' W 163°38'2 0.4 27.4
2017-Aug-18 08:00S 15°07' W 163°37'1 0.6 27.5
2017-Aug-18 07:00S 15°06' W 163°37'3 3.0 27.6
2017-Aug-18 06:00S 15°07' W 163°34'0 0.0 27.6
2017-Aug-18 05:00S 15°07' W 163°34'1 1.3 27.7
2017-Aug-18 04:00S 15°06' W 163°32'0 0.0 27.7
2017-Aug-18 03:00S 15°06' W 163°32'1 0.6 27.7
2017-Aug-18 02:00S 15°05' W 163°32'2 1.2 27.7
2017-Aug-18 00:00S 15°05' W 163°30'4 1.4 27.7
2017-Aug-17 21:00S 15°05' W 163°26'2 1.7 27.7
2017-Aug-17 20:00S 15°04' W 163°25'0 0.0 27.7
2017-Aug-17 19:00S 15°04' W 163°25'3 2.9 27.7
2017-Aug-17 18:00S 15°02' W 163°22'0 0.0 27.8
2017-Aug-17 17:00S 15°02' W 163°22'2 1.8 27.8
2017-Aug-17 16:00S 15°01' W 163°22'0 0.0 27.8
2017-Aug-17 15:00S 15°01' W 163°22'2 2.4 27.9
2017-Aug-17 14:00S 15°00' W 163°20'3 1.5 27.9
2017-Aug-17 12:00S 14°58' W 163°18'0 0.0 27.9
2017-Aug-17 09:00S 14°58' W 163°18'1 0.8 27.9
2017-Aug-17 08:00S 14°57' W 163°17'2 1.8 27.9
2017-Aug-17 07:00S 14°56' W 163°16'0 0.0 27.9
2017-Aug-17 06:00S 14°56' W 163°16'1 0.6 27.9
2017-Aug-17 05:00S 14°56' W 163°16'1 1.3 27.8
2017-Aug-17 04:00S 14°55' W 163°14'1 0.6 27.8
2017-Aug-17 03:00S 14°55' W 163°15'1 1.3 27.7
2017-Aug-17 02:00S 14°55' W 163°14'0 0.0 27.7
2017-Aug-17 01:00S 14°55' W 163°14'0 0.0 27.7
2017-Aug-17 00:00S 14°55' W 163°14'3 0.9 27.8
2017-Aug-16 21:00S 14°53' W 163°11'1 0.6 27.8
2017-Aug-16 20:00S 14°53' W 163°11'1 0.6 27.8
2017-Aug-16 19:00S 14°53' W 163°11'0 0.0 27.8
2017-Aug-16 18:00S 14°53' W 163°11'2 1.7 27.8
2017-Aug-16 17:00S 14°52' W 163°10'3 3.4 27.8
2017-Aug-16 16:00S 14°50' W 163°07'0 0.0 27.9
2017-Aug-16 15:00S 14°50' W 163°07'0 0.0 27.9
2017-Aug-16 14:00S 14°50' W 163°07'1 1.3 27.9
2017-Aug-16 13:00S 14°49' W 163°06'0 0.0 27.9
2017-Aug-16 12:00S 14°49' W 163°06'2 0.6 27.9
2017-Aug-16 09:00S 14°49' W 163°04'4 3.7 27.9
2017-Aug-16 08:00S 14°47' W 163°01'1 0.6 27.9
2017-Aug-16 07:00S 14°47' W 163°01'0 0.0 27.9
2017-Aug-16 06:00S 14°47' W 163°01'1 1.3 27.8
2017-Aug-16 05:00S 14°48' W 163°00'2 2.3 27.8
2017-Aug-16 04:00S 14°48' W 162°58'1 0.6 27.9
2017-Aug-16 03:00S 14°49' W 162°58'0 0.0 27.9
2017-Aug-16 02:00S 14°49' W 162°58'0 0.0 27.9
2017-Aug-16 01:00S 14°49' W 162°58'3 0.7 27.9
2017-Aug-15 21:00S 14°49' W 162°55'2 1.2 27.9
2017-Aug-15 19:00S 14°49' W 162°52'0 0.0 27.8
2017-Aug-15 18:00S 14°49' W 162°52'0 0.0 27.9
2017-Aug-15 17:00S 14°49' W 162°52'0 0.0 27.9
2017-Aug-15 16:00S 14°49' W 162°52'1 0.7 27.9
2017-Aug-15 14:00S 14°49' W 162°51'1 0.8 27.9
2017-Aug-15 13:00S 14°49' W 162°50'0 0.0 27.9
2017-Aug-15 12:00S 14°49' W 162°50'4 1.1 27.9
2017-Aug-15 08:00S 14°47' W 162°46'0 0.0 27.9
2017-Aug-15 07:00S 14°47' W 162°46'1 0.6 27.9
2017-Aug-15 06:00S 14°47' W 162°46'0 0.0 27.9
2017-Aug-15 05:00S 14°47' W 162°46'1 1.3 27.9
2017-Aug-15 04:00S 14°47' W 162°44'1 0.8 27.9
2017-Aug-15 03:00S 14°47' W 162°44'1 0.8 27.9
2017-Aug-15 02:00S 14°47' W 162°44'0 0.0 27.9
2017-Aug-15 01:00S 14°47' W 162°44'3 0.9 27.9
2017-Aug-14 21:00S 14°45' W 162°41'3 3.0 27.8
2017-Aug-14 20:00S 14°46' W 162°38'1 0.8 27.8
2017-Aug-14 19:00S 14°45' W 162°38'2 2.1 27.8
2017-Aug-14 18:00S 14°47' W 162°37'1 0.8 27.7
2017-Aug-14 17:00S 14°46' W 162°36'0 0.0 27.7
2017-Aug-14 16:00S 14°46' W 162°36'1 1.3 27.7
2017-Aug-14 15:00S 14°47' W 162°35'0 0.0 27.7
2017-Aug-14 14:00S 14°47' W 162°35'1 0.6 27.6
2017-Aug-14 13:00S 14°47' W 162°34'0 0.0 27.6
2017-Aug-14 12:00S 14°47' W 162°34'4 1.4 27.5
2017-Aug-14 09:00S 14°48' W 162°30'0 0.0 27.5
2017-Aug-14 08:00S 14°48' W 162°30'1 1.2 27.6
2017-Aug-14 07:00S 14°48' W 162°29'3 3.1 27.6
2017-Aug-14 06:00S 14°51' W 162°28'1 0.3 27.7
2017-Aug-14 04:00S 14°50' W 162°28'2 1.8 27.5
2017-Aug-14 03:00S 14°52' W 162°28'0 0.0 27.5
2017-Aug-14 02:00S 14°52' W 162°28'0 0.0 27.4
2017-Aug-14 01:00S 14°52' W 162°28'6 1.2 27.3
2017-Aug-13 20:00S 14°54' W 162°22'1 0.6 27.3
2017-Aug-13 19:00S 14°55' W 162°22'2 2.4 27.3
2017-Aug-13 18:00S 14°55' W 162°20'1 0.3 27.3
2017-Aug-13 16:00S 14°55' W 162°20'1 1.2 27.3
2017-Aug-13 15:00S 14°55' W 162°19'1 0.3 27.3
2017-Aug-13 13:00S 14°55' W 162°19'0 0.0 27.5
2017-Aug-13 12:00S 14°55' W 162°19'1 0.4 27.5
2017-Aug-13 09:00S 14°54' W 162°18'1 0.8 27.6
2017-Aug-13 08:00S 14°53' W 162°17'1 0.6 27.7
2017-Aug-13 07:00S 14°53' W 162°17'0 0.0 27.7
2017-Aug-13 06:00S 14°53' W 162°17'1 1.3 27.8
2017-Aug-13 05:00S 14°53' W 162°16'1 0.6 27.8
2017-Aug-13 04:00S 14°53' W 162°16'0 0.0 27.9
2017-Aug-13 03:00S 14°53' W 162°16'1 1.3 27.9
2017-Aug-13 02:00S 14°53' W 162°17'0 0.0 27.9
2017-Aug-13 01:00S 14°53' W 162°17'2 0.5 27.9
2017-Aug-12 21:00S 14°51' W 162°16'0 0.0 27.8
2017-Aug-12 20:00S 14°51' W 162°16'0 0.0 27.8
2017-Aug-12 19:00S 14°51' W 162°16'2 1.7 27.8
2017-Aug-12 18:00S 14°51' W 162°14'2 0.9 27.8
2017-Aug-12 16:00S 14°51' W 162°16'0 0.0 27.8
2017-Aug-12 15:00S 14°51' W 162°16'0 0.0 27.8
2017-Aug-12 13:00S 14°51' W 162°16'1 0.3 27.8
2017-Aug-12 09:00S 14°52' W 162°17'1 0.8 27.9
2017-Aug-12 08:00S 14°51' W 162°17'1 0.6 27.8
2017-Aug-12 07:00S 14°50' W 162°17'0 0.0 27.9
2017-Aug-12 06:00S 14°50' W 162°17'2 1.8 27.9
2017-Aug-12 05:00S 14°50' W 162°19'   27.9

Dump ship's entire track history